LSGG/GVA METAR and TAF weather

Enter ICAO airport designator
Station Type Date Time Source
LSGG METAR 2019/02/18 04:20 UTC NOAA

LSGG 180420Z AUTO VRB01KT CAVOK M02/M03 Q1024 NOSIG


Station Type Date Time Source
LSGG Decoded METAR 2019/02/18 04:20 UTC NOAA

Geneve-Cointrin, Switzerland (LSGG) 46-15N 006-08E 416M
Feb 17, 2019 - 11:20 PM EST / 2019.02.18 0420 UTC
Wind: Variable at 1 MPH (1 KT):0
Visibility: greater than 7 mile(s):0
Temperature: 28 F (-2 C)
Dew Point: 26 F (-3 C)
Relative Humidity: 92%
Pressure (altimeter): 30.24 in. Hg (1024 hPa)
ob: LSGG 180420Z AUTO VRB01KT CAVOK M02/M03 Q1024 NOSIG
cycle: 4

Station Type Date Time Source
LSGG TAF 2019/02/18 03:33 UTC NOAA

TAF TAF LSGG 180225Z 1803/1909 VRB02KT CAVOK TX12/1815Z TNM01/1806Z TNM01/1906Z
TEMPO 1804/1808 8000 NSC
TEMPO 1904/1906 4500 BR


Example: see airport list